Terminal Aerodrome Forecast
Issued by NWS

Home | Current Version | Previous Version | Text Only | Print | Product List | Glossary On
Versions: 1 2 3 4 5 6 7 8 9 10 11 12 13
937
FTUS44 KSJT 250547
TAFJCT
TAF
KJCT 250547Z 2506/2606 VRB05KT 5SM TSRA BKN025CB
     FM251100 VRB04KT P6SM VCTS OVC015CB
     FM251800 15008G15KT P6SM VCTS OVC025CB
     FM260200 09004KT P6SM -TSRA OVC015CB=

USA.gov is the U.S. government's official web portal to all federal, state and local government web resources and services.